createdAt,value
2023-04-30T00:00:00.498Z,91.94
2023-04-30T00:03:09.496Z,92.35
2023-04-30T00:06:18.230Z,92.50
2023-04-30T00:09:28.873Z,92.60
2023-04-30T00:12:37.868Z,92.60
2023-04-30T00:15:46.252Z,92.50
2023-04-30T00:18:56.685Z,92.64
2023-04-30T00:22:04.936Z,92.99
2023-04-30T00:25:12.987Z,93.41
2023-04-30T00:28:22.361Z,93.97
2023-04-30T00:31:30.530Z,93.97
2023-04-30T00:34:38.563Z,93.97
2023-04-30T00:37:46.681Z,94.18
2023-04-30T00:40:56.218Z,94.12
2023-04-30T00:44:04.050Z,94.22
2023-04-30T00:47:12.449Z,94.47
2023-04-30T00:50:21.995Z,94.47
2023-04-30T00:53:30.071Z,94.57
2023-04-30T00:56:38.305Z,94.98
2023-04-30T00:59:47.900Z,95.19
2023-04-30T01:02:56.110Z,95.14
2023-04-30T01:06:04.014Z,95.03
2023-04-30T01:09:13.731Z,95.34
2023-04-30T01:12:21.799Z,95.39
2023-04-30T01:15:30.054Z,95.59
2023-04-30T01:18:39.591Z,95.70
2023-04-30T01:21:47.586Z,95.80
2023-04-30T01:24:55.982Z,95.70
2023-04-30T01:28:04.057Z,95.70
2023-04-30T01:31:13.455Z,95.70
2023-04-30T01:34:21.480Z,95.53
2023-04-30T01:37:29.504Z,95.64
2023-04-30T01:40:38.919Z,95.53
2023-04-30T01:43:46.892Z,95.74
2023-04-30T01:46:54.742Z,95.68
2023-04-30T01:50:04.204Z,95.68
2023-04-30T01:53:12.234Z,95.57
2023-04-30T01:56:20.307Z,95.37
2023-04-30T01:59:29.720Z,95.47
2023-04-30T02:02:37.903Z,95.37
2023-04-30T02:05:45.990Z,95.47
2023-04-30T02:08:54.128Z,95.31
2023-04-30T02:12:03.561Z,95.51
2023-04-30T02:15:11.588Z,95.41
2023-04-30T02:18:19.795Z,95.31
2023-04-30T02:21:29.219Z,95.15
2023-04-30T02:24:37.261Z,95.46
2023-04-30T02:27:45.270Z,95.77
2023-04-30T02:30:54.835Z,95.98
2023-04-30T02:34:02.988Z,95.77
2023-04-30T02:37:11.021Z,95.77
2023-04-30T02:40:20.518Z,95.67
2023-04-30T02:43:28.659Z,95.77
2023-04-30T02:46:36.590Z,95.81
2023-04-30T02:49:46.045Z,95.77
2023-04-30T02:52:54.040Z,95.61
2023-04-30T02:56:02.074Z,95.92
2023-04-30T02:59:09.964Z,95.81
2023-04-30T03:02:19.613Z,95.92
2023-04-30T03:05:27.795Z,96.02
2023-04-30T03:08:35.804Z,96.02
2023-04-30T03:11:45.348Z,96.02
2023-04-30T03:14:53.325Z,96.12
2023-04-30T03:18:01.320Z,96.23
2023-04-30T03:21:10.639Z,96.23
2023-04-30T03:24:18.659Z,95.75
2023-04-30T03:27:26.681Z,96.06
2023-04-30T03:30:36.122Z,96.06
2023-04-30T03:33:44.075Z,96.21
2023-04-30T03:36:51.991Z,96.31
2023-04-30T03:40:00.083Z,96.21
2023-04-30T03:43:09.426Z,96.11
2023-04-30T03:46:17.801Z,96.31
2023-04-30T03:49:26.008Z,96.21
2023-04-30T03:52:35.405Z,96.00
2023-04-30T03:55:43.547Z,95.59
2023-04-30T03:58:51.476Z,95.69
2023-04-30T04:02:00.938Z,95.59
2023-04-30T04:05:09.221Z,95.69
2023-04-30T04:08:17.372Z,95.90
2023-04-30T04:11:26.930Z,96.11
2023-04-30T04:14:35.101Z,96.17
2023-04-30T04:17:43.250Z,96.00
2023-04-30T04:20:52.721Z,96.17
2023-04-30T04:24:01.313Z,96.27
2023-04-30T04:27:09.295Z,96.17
2023-04-30T04:30:17.230Z,96.27
2023-04-30T04:33:26.724Z,96.33
2023-04-30T04:36:34.788Z,96.33
2023-04-30T04:39:42.904Z,96.33
2023-04-30T04:42:52.557Z,96.33
2023-04-30T04:46:00.939Z,96.33
2023-04-30T04:49:09.275Z,96.44
2023-04-30T04:52:18.982Z,96.54
2023-04-30T04:55:27.062Z,96.75
2023-04-30T04:58:35.224Z,96.95
2023-04-30T05:01:44.912Z,97.16
2023-04-30T05:04:53.243Z,97.53
2023-04-30T05:08:01.869Z,97.95
2023-04-30T05:11:10.378Z,98.36
2023-04-30T05:14:20.298Z,98.73
2023-04-30T05:17:29.079Z,98.94
2023-04-30T05:20:37.664Z,99.31
2023-04-30T05:23:47.420Z,99.26
2023-04-30T05:26:55.756Z,99.37
2023-04-30T05:30:03.899Z,99.43
2023-04-30T05:33:13.605Z,99.48
2023-04-30T05:36:21.762Z,98.86
2023-04-30T05:39:30.123Z,97.06
2023-04-30T05:42:39.718Z,95.71
2023-04-30T05:45:48.148Z,93.29
2023-04-30T05:48:56.392Z,92.42
2023-04-30T05:52:06.052Z,89.32
2023-04-30T05:55:14.118Z,87.31
2023-04-30T05:58:22.323Z,87.93
2023-04-30T06:01:30.944Z,86.44
2023-04-30T06:04:40.680Z,83.86
2023-04-30T06:07:48.986Z,83.45
2023-04-30T06:10:57.386Z,82.79
2023-04-30T06:14:07.756Z,83.10
2023-04-30T06:17:15.819Z,80.90
2023-04-30T06:20:24.055Z,79.86
2023-04-30T06:23:33.991Z,79.41
2023-04-30T06:26:42.276Z,76.94
2023-04-30T06:29:51.442Z,77.35
2023-04-30T06:33:00.996Z,77.04
2023-04-30T06:36:09.037Z,75.87
2023-04-30T06:39:17.158Z,76.18
2023-04-30T06:42:25.576Z,75.56
2023-04-30T06:45:35.061Z,76.25
2023-04-30T06:48:43.380Z,75.22
2023-04-30T06:51:51.492Z,74.29
2023-04-30T06:55:01.070Z,75.70
2023-04-30T06:58:09.216Z,73.64
2023-04-30T07:01:17.530Z,75.25
2023-04-30T07:04:27.080Z,73.81
2023-04-30T07:07:35.362Z,73.09
2023-04-30T07:10:43.558Z,72.85
2023-04-30T07:13:53.325Z,73.81
2023-04-30T07:17:01.474Z,72.64
2023-04-30T07:20:09.747Z,72.75
2023-04-30T07:23:19.528Z,73.26
2023-04-30T07:26:27.766Z,72.51
2023-04-30T07:29:36.146Z,71.89
2023-04-30T07:32:44.401Z,71.48
2023-04-30T07:35:53.931Z,71.75
2023-04-30T07:39:01.997Z,70.01
2023-04-30T07:42:10.102Z,72.17
2023-04-30T07:45:19.608Z,70.90
2023-04-30T07:48:27.729Z,70.28
2023-04-30T07:51:36.189Z,68.95
2023-04-30T07:54:46.102Z,70.90
2023-04-30T07:57:54.103Z,67.58
2023-04-30T08:01:02.245Z,69.74
2023-04-30T08:04:11.804Z,67.41
2023-04-30T08:07:19.921Z,67.10
2023-04-30T08:10:27.963Z,67.89
2023-04-30T08:13:36.229Z,66.93
2023-04-30T08:16:45.955Z,68.44
2023-04-30T08:19:54.113Z,67.83
2023-04-30T08:23:02.166Z,68.30
2023-04-30T08:26:11.794Z,64.92
2023-04-30T08:29:19.848Z,65.12
2023-04-30T08:32:28.085Z,65.44
2023-04-30T08:35:37.726Z,65.12
2023-04-30T08:38:46.115Z,65.41
2023-04-30T08:41:54.783Z,64.14
2023-04-30T08:45:04.305Z,62.74
2023-04-30T08:48:13.201Z,64.28
2023-04-30T08:51:21.878Z,63.43
2023-04-30T08:54:31.454Z,62.61
2023-04-30T08:57:39.967Z,60.05
2023-04-30T09:00:48.498Z,61.79
2023-04-30T09:03:57.139Z,60.46
2023-04-30T09:07:08.914Z,62.81
2023-04-30T09:10:07.810Z,62.61
2023-04-30T09:13:16.109Z,61.48
2023-04-30T09:16:26.423Z,62.27
2023-04-30T09:19:34.910Z,62.07
2023-04-30T09:22:43.765Z,60.91
2023-04-30T09:25:53.757Z,60.50
2023-04-30T09:29:03.241Z,60.88
2023-04-30T09:32:12.598Z,60.24
2023-04-30T09:35:22.166Z,58.20
2023-04-30T09:38:30.983Z,60.03
2023-04-30T09:41:40.093Z,60.14
2023-04-30T09:44:48.196Z,58.58
2023-04-30T09:48:08.996Z,60.83
2023-04-30T09:51:04.477Z,59.34
2023-04-30T09:54:12.944Z,59.47
2023-04-30T09:57:23.378Z,57.81
2023-04-30T10:00:31.677Z,57.40
2023-04-30T10:03:39.702Z,55.76
2023-04-30T10:06:49.938Z,54.33
2023-04-30T10:09:58.887Z,56.35
2023-04-30T10:13:07.710Z,56.35
2023-04-30T10:16:17.426Z,55.54
2023-04-30T10:19:26.104Z,55.91
2023-04-30T10:22:34.561Z,56.53
2023-04-30T10:25:44.336Z,53.85
2023-04-30T10:28:53.282Z,54.13
2023-04-30T10:32:02.254Z,51.91
2023-04-30T10:35:10.750Z,52.22
2023-04-30T10:38:20.709Z,51.61
2023-04-30T10:41:29.213Z,51.51
2023-04-30T10:44:37.879Z,52.73
2023-04-30T10:47:48.081Z,53.85
2023-04-30T10:50:56.896Z,53.01
2023-04-30T10:54:05.392Z,53.42
2023-04-30T10:57:15.171Z,53.19
2023-04-30T11:00:23.912Z,53.37
2023-04-30T11:03:32.566Z,50.42
2023-04-30T11:06:44.985Z,51.03
2023-04-30T11:09:43.088Z,52.58
2023-04-30T11:12:51.051Z,52.35
2023-04-30T11:15:59.920Z,52.22
2023-04-30T11:19:11.387Z,50.24
2023-04-30T11:22:19.551Z,49.04
2023-04-30T11:25:27.848Z,50.47
2023-04-30T11:28:37.722Z,50.37
2023-04-30T11:31:45.753Z,51.08
2023-04-30T11:34:54.468Z,47.50
2023-04-30T11:38:04.565Z,47.31
2023-04-30T11:41:12.543Z,48.28
2023-04-30T11:44:21.545Z,45.54
2023-04-30T11:47:31.123Z,46.44
2023-04-30T11:50:40.993Z,44.30
2023-04-30T11:53:49.563Z,46.56
2023-04-30T11:56:57.997Z,45.11
2023-04-30T12:00:07.771Z,48.19
2023-04-30T12:03:16.197Z,47.96
2023-04-30T12:06:24.755Z,47.75
2023-04-30T12:09:34.347Z,49.16
2023-04-30T12:12:42.231Z,47.34
2023-04-30T12:15:51.037Z,45.70
2023-04-30T12:19:01.262Z,45.23
2023-04-30T12:22:09.199Z,48.11
2023-04-30T12:25:17.294Z,46.67
2023-04-30T12:28:27.412Z,47.36
2023-04-30T12:31:35.363Z,45.72
2023-04-30T12:34:44.109Z,45.82
2023-04-30T12:37:54.441Z,46.22
2023-04-30T12:41:03.111Z,44.22
2023-04-30T12:44:11.819Z,44.85
2023-04-30T12:47:20.168Z,44.97
2023-04-30T12:50:29.853Z,42.13
2023-04-30T12:53:38.390Z,43.35
2023-04-30T12:56:46.603Z,45.86
2023-04-30T12:59:57.327Z,42.76
2023-04-30T13:03:05.990Z,42.66
2023-04-30T13:06:14.539Z,45.09
2023-04-30T13:09:24.640Z,44.36
2023-04-30T13:12:32.606Z,43.02
2023-04-30T13:15:41.574Z,40.61
2023-04-30T13:18:51.640Z,42.23
2023-04-30T13:21:59.526Z,40.29
2023-04-30T13:25:08.292Z,41.30
2023-04-30T13:28:16.684Z,38.26
2023-04-30T13:31:26.413Z,39.29
2023-04-30T13:34:35.124Z,38.46
2023-04-30T13:37:43.552Z,38.08
2023-04-30T13:40:53.412Z,39.97
2023-04-30T13:44:02.122Z,37.52
2023-04-30T13:47:10.241Z,36.69
2023-04-30T13:50:20.403Z,37.43
2023-04-30T13:53:28.360Z,38.57
2023-04-30T13:56:36.729Z,37.96
2023-04-30T13:59:46.522Z,40.71
2023-04-30T14:02:54.972Z,39.37
2023-04-30T14:06:03.392Z,39.86
2023-04-30T14:09:13.630Z,40.55
2023-04-30T14:12:21.533Z,40.37
2023-04-30T14:15:30.696Z,40.57
2023-04-30T14:18:39.496Z,39.26
2023-04-30T14:21:48.902Z,40.06
2023-04-30T14:24:57.650Z,39.66
2023-04-30T14:28:06.563Z,39.93
2023-04-30T14:31:16.019Z,38.71
2023-04-30T14:34:24.789Z,40.94
2023-04-30T14:37:33.655Z,39.40
2023-04-30T14:40:42.931Z,39.42
2023-04-30T14:43:51.939Z,39.62
2023-04-30T14:47:00.313Z,40.57
2023-04-30T14:50:10.122Z,40.39
2023-04-30T14:53:18.705Z,41.38
2023-04-30T14:56:27.055Z,41.97
2023-04-30T14:59:35.021Z,39.61
2023-04-30T15:02:44.757Z,39.28
2023-04-30T15:05:53.548Z,39.12
2023-04-30T15:09:02.027Z,41.35
2023-04-30T15:12:12.440Z,39.81
2023-04-30T15:15:20.636Z,39.52
2023-04-30T15:18:29.633Z,40.72
2023-04-30T15:21:29.604Z,40.31
2023-04-30T15:24:38.161Z,39.93
2023-04-30T15:27:46.641Z,40.92
2023-04-30T15:30:57.380Z,38.90
2023-04-30T15:34:05.264Z,40.13
2023-04-30T15:37:14.307Z,40.73
2023-04-30T15:40:22.876Z,40.73
2023-04-30T15:43:32.238Z,40.53
2023-04-30T15:46:42.137Z,40.84
2023-04-30T15:49:51.166Z,40.82
2023-04-30T15:53:01.225Z,41.20
2023-04-30T15:56:10.438Z,39.47
2023-04-30T15:59:19.795Z,40.48
2023-04-30T16:02:29.456Z,40.05
2023-04-30T16:05:39.060Z,40.05
2023-04-30T16:08:47.967Z,38.93
2023-04-30T16:11:57.743Z,37.84
2023-04-30T16:15:06.546Z,38.48
2023-04-30T16:18:15.064Z,39.28
2023-04-30T16:21:25.199Z,37.95
2023-04-30T16:24:25.319Z,39.59
2023-04-30T16:27:35.751Z,38.46
2023-04-30T16:30:34.866Z,38.15
2023-04-30T16:33:45.037Z,38.37
2023-04-30T16:36:53.984Z,38.37
2023-04-30T16:40:02.481Z,38.19
2023-04-30T16:43:12.765Z,38.11
2023-04-30T16:46:21.070Z,37.70
2023-04-30T16:49:29.056Z,37.70
2023-04-30T16:52:39.725Z,37.50
2023-04-30T16:55:48.273Z,38.13
2023-04-30T16:58:57.107Z,39.15
2023-04-30T17:02:07.212Z,40.09
2023-04-30T17:05:15.592Z,39.37
2023-04-30T17:08:25.010Z,39.09
2023-04-30T17:11:33.989Z,40.20
2023-04-30T17:14:43.712Z,40.43
2023-04-30T17:17:52.669Z,40.75
2023-04-30T17:21:02.317Z,40.85
2023-04-30T17:24:12.693Z,41.68
2023-04-30T17:27:20.650Z,40.56
2023-04-30T17:30:29.428Z,42.00
2023-04-30T17:33:39.340Z,40.99
2023-04-30T17:36:49.803Z,41.52
2023-04-30T17:39:58.898Z,44.26
2023-04-30T17:43:08.395Z,42.96
2023-04-30T17:46:17.209Z,44.10
2023-04-30T17:49:25.756Z,46.25
2023-04-30T17:52:35.005Z,48.69
2023-04-30T17:55:44.953Z,45.46
2023-04-30T17:58:53.712Z,48.82
2023-04-30T18:02:02.085Z,51.69
2023-04-30T18:05:12.245Z,51.81
2023-04-30T18:08:20.771Z,50.42
2023-04-30T18:11:29.856Z,52.58
2023-04-30T18:14:40.155Z,56.04
2023-04-30T18:17:48.564Z,51.38
2023-04-30T18:20:57.150Z,52.29
2023-04-30T18:24:06.661Z,56.10
2023-04-30T18:27:16.390Z,57.96
2023-04-30T18:30:25.068Z,58.70
2023-04-30T18:33:35.285Z,59.34
2023-04-30T18:36:44.382Z,62.43
2023-04-30T18:39:53.876Z,60.11
2023-04-30T18:43:03.263Z,58.58
2023-04-30T18:46:13.214Z,59.09
2023-04-30T18:49:21.598Z,59.94
2023-04-30T18:52:30.539Z,61.29
2023-04-30T18:55:30.474Z,60.30
2023-04-30T18:58:39.526Z,61.43
2023-04-30T19:01:47.749Z,60.40
2023-04-30T19:04:58.272Z,60.84
2023-04-30T19:08:07.186Z,60.84
2023-04-30T19:11:16.365Z,60.74
2023-04-30T19:14:26.538Z,61.69
2023-04-30T19:17:36.032Z,59.43
2023-04-30T19:20:45.386Z,59.50
2023-04-30T19:23:54.566Z,60.15
2023-04-30T19:27:04.200Z,60.56
2023-04-30T19:30:13.033Z,63.15
2023-04-30T19:33:21.997Z,62.95
2023-04-30T19:36:32.218Z,62.46
2023-04-30T19:37:37.745Z,62.87
2023-04-30T19:40:46.010Z,63.90
2023-04-30T19:43:53.984Z,65.16
2023-04-30T19:47:03.731Z,65.47
2023-04-30T19:50:12.727Z,66.08
2023-04-30T19:53:21.710Z,66.73
2023-04-30T19:56:32.014Z,67.24
2023-04-30T19:59:40.859Z,67.79
2023-04-30T20:02:49.054Z,68.10
2023-04-30T20:05:59.871Z,69.02
2023-04-30T20:09:08.936Z,69.15
2023-04-30T20:12:18.268Z,69.67
2023-04-30T20:15:18.218Z,69.49
2023-04-30T20:18:26.759Z,69.18
2023-04-30T20:21:34.744Z,69.09
2023-04-30T20:24:43.653Z,69.80
2023-04-30T20:27:53.696Z,70.11
2023-04-30T20:31:03.191Z,69.90
2023-04-30T20:34:11.568Z,69.60
2023-04-30T20:37:22.239Z,68.46
2023-04-30T20:40:31.719Z,68.88
2023-04-30T20:43:41.830Z,69.53
2023-04-30T20:46:41.516Z,70.07
2023-04-30T20:49:49.853Z,70.79
2023-04-30T20:52:58.554Z,71.00
2023-04-30T20:56:08.928Z,71.92
2023-04-30T20:59:17.657Z,71.31
2023-04-30T21:02:26.614Z,71.31
2023-04-30T21:05:35.288Z,71.10
2023-04-30T21:08:45.797Z,70.83
2023-04-30T21:11:54.244Z,71.41
2023-04-30T21:15:02.799Z,71.82
2023-04-30T21:18:13.080Z,71.41
2023-04-30T21:21:21.097Z,71.24
2023-04-30T21:24:29.812Z,71.44
2023-04-30T21:27:40.166Z,71.65
2023-04-30T21:30:49.560Z,72.41
2023-04-30T21:33:57.789Z,71.48
2023-04-30T21:37:08.049Z,72.09
2023-04-30T21:40:16.788Z,72.61
2023-04-30T21:43:26.422Z,72.44
2023-04-30T21:46:35.323Z,72.41
2023-04-30T21:49:45.767Z,72.03
2023-04-30T21:52:53.688Z,72.64
2023-04-30T21:56:02.919Z,73.05
2023-04-30T21:59:13.676Z,74.29
2023-04-30T22:02:24.295Z,74.80
2023-04-30T22:05:22.902Z,74.80
2023-04-30T22:08:32.126Z,75.56
2023-04-30T22:11:40.791Z,75.56
2023-04-30T22:14:49.158Z,74.88
2023-04-30T22:17:59.825Z,75.81
2023-04-30T22:21:08.146Z,75.39
2023-04-30T22:24:17.152Z,75.49
2023-04-30T22:27:29.853Z,75.46
2023-04-30T22:30:38.313Z,74.95
2023-04-30T22:33:47.257Z,75.39
2023-04-30T22:36:55.708Z,75.70
2023-04-30T22:40:05.532Z,75.60
2023-04-30T22:43:14.353Z,75.84
2023-04-30T22:46:22.715Z,76.25
2023-04-30T22:49:32.573Z,76.25
2023-04-30T22:52:41.464Z,75.95
2023-04-30T22:55:49.385Z,76.04
2023-04-30T22:58:59.801Z,76.15
2023-04-30T23:02:08.492Z,75.95
2023-04-30T23:05:17.137Z,75.74
2023-04-30T23:08:17.696Z,76.77
2023-04-30T23:11:26.247Z,76.04
2023-04-30T23:14:35.046Z,76.35
2023-04-30T23:17:43.596Z,76.77
2023-04-30T23:20:54.415Z,76.87
2023-04-30T23:24:02.897Z,76.56
2023-04-30T23:27:12.181Z,76.25
2023-04-30T23:30:21.986Z,76.98
2023-04-30T23:33:30.750Z,77.63
2023-04-30T23:36:39.142Z,79.42
2023-04-30T23:39:50.239Z,79.42
2023-04-30T23:43:15.365Z,77.56
2023-04-30T23:46:24.142Z,76.39
2023-04-30T23:49:34.909Z,75.32
2023-04-30T23:52:43.835Z,74.77
2023-04-30T23:55:51.745Z,74.36
2023-04-30T23:59:01.542Z,73.95
